Time;durP1;ratioP1;P1;durP2;ratioP2;P2;SDS_P1;SDS_P2;PMS_P1;PMS_P2;Temp;Humidity;BMP_temperature;BMP_pressure;BME280_temperature;BME280_humidity;BME280_pressure;Samples;Min_cycle;Max_cycle;Signal;HPM_P1;HPM_P2
2022/09/02 00:03:00;;;;;;;5.30;2.90;;;;;;;17.70;44.55;100221.95;1700336;84;21783;-79
2022/09/02 00:06:06;;;;;;;6.75;3.30;;;;;;;17.67;44.76;100227.92;1701566;84;21760;-78
2022/09/02 00:09:13;;;;;;;6.53;2.85;;;;;;;17.70;44.83;100237.16;1700264;83;21763;-78
2022/09/02 00:12:18;;;;;;;7.90;3.08;;;;;;;17.65;45.01;100241.14;1701583;84;21191;-78
2022/09/02 00:15:24;;;;;;;8.18;3.17;;;;;;;17.57;44.99;100245.86;1700482;84;21790;-79
2022/09/02 00:18:31;;;;;;;9.13;3.22;;;;;;;17.54;45.06;100250.44;1701601;84;21724;-79
2022/09/02 00:21:39;;;;;;;11.33;3.37;;;;;;;17.46;45.31;100247.13;1701588;84;21740;-79
2022/09/02 00:24:45;;;;;;;8.13;3.50;;;;;;;17.37;45.47;100249.30;1700571;84;21791;-83
2022/09/02 00:27:52;;;;;;;10.55;3.58;;;;;;;17.29;45.58;100250.41;1701545;84;21175;-79
2022/09/02 00:30:57;;;;;;;7.37;3.30;;;;;;;17.23;46.06;100253.22;1701592;84;21222;-79
2022/09/02 00:34:04;;;;;;;14.50;4.72;;;;;;;17.29;45.87;100250.41;1701067;84;21200;-84
2022/09/02 00:37:10;;;;;;;11.97;4.58;;;;;;;17.09;46.58;100253.28;1701482;84;21199;-78
2022/09/02 00:40:17;;;;;;;13.65;4.40;;;;;;;17.06;47.03;100258.39;1700655;84;21258;-82
2022/09/02 00:43:50;;;;;;;7.60;4.15;;;;;;;17.14;46.91;100252.62;1701504;84;21211;-78
2022/09/02 00:46:55;;;;;;;11.40;4.12;;;;;;;17.04;47.18;100251.72;1701660;84;21183;-83
2022/09/02 00:50:00;;;;;;;12.90;4.33;;;;;;;17.05;47.14;100260.84;1700261;84;21226;-83
2022/09/02 00:53:13;;;;;;;7.12;3.75;;;;;;;17.02;47.11;100264.88;1700182;84;21186;-83
2022/09/02 00:56:22;;;;;;;7.75;3.65;;;;;;;16.99;47.16;100259.82;1701540;84;21859;-78
2022/09/02 00:59:51;;;;;;;10.98;3.62;;;;;;;16.98;47.25;100266.39;1721371;82;21718;-79
2022/09/02 01:03:01;;;;;;;9.13;3.75;;;;;;;16.89;47.52;100262.71;1718924;83;21176;-78
2022/09/02 01:06:06;;;;;;;10.70;3.85;;;;;;;16.87;47.64;100261.56;1718967;83;21198;-83
2022/09/02 01:09:22;;;;;;;12.00;3.83;;;;;;;16.73;47.96;100265.44;1771293;79;21149;-78
2022/09/02 01:12:27;;;;;;;10.20;4.50;;;;;;;16.74;48.04;100268.51;1770481;81;21168;-83
2022/09/02 01:15:36;;;;;;;9.20;3.60;;;;;;;16.65;48.42;100267.02;1769809;79;21161;-78
2022/09/02 01:18:43;;;;;;;13.55;4.30;;;;;;;16.71;48.51;100266.17;1771070;79;21760;-78
2022/09/02 01:21:57;;;;;;;17.37;4.10;;;;;;;16.67;48.66;100269.05;1771296;81;21129;-78
2022/09/02 01:25:04;;;;;;;11.93;3.40;;;;;;;16.70;48.59;100275.50;1771342;79;21164;-83
2022/09/02 01:28:09;;;;;;;14.13;3.87;;;;;;;16.65;48.66;100276.14;1770126;81;21203;-82
2022/09/02 01:31:08;;;;;;;11.45;4.65;;;;;;;16.62;48.66;100282.13;1771170;81;21136;-78
2022/09/02 01:34:01;;;;;;;11.20;3.80;;;;;;;16.51;48.82;100291.89;1770802;79;21165;-79
2022/09/02 01:37:07;;;;;;;15.53;4.15;;;;;;;16.56;48.73;100283.84;1771229;81;21132;-79
2022/09/02 01:40:15;;;;;;;7.55;4.55;;;;;;;16.53;48.83;100299.45;1770001;79;21176;-79
2022/09/02 01:43:25;;;;;;;10.63;4.17;;;;;;;16.48;49.02;100297.87;1770129;79;21502;-78
2022/09/02 01:46:31;;;;;;;10.65;3.83;;;;;;;16.48;49.09;100307.53;1771269;81;21738;-84
2022/09/02 01:49:36;;;;;;;15.58;4.62;;;;;;;16.35;49.42;100304.25;1770430;79;21693;-82
2022/09/02 01:52:43;;;;;;;9.28;4.33;;;;;;;16.22;49.72;100311.16;1769851;81;21184;-78
2022/09/02 01:55:51;;;;;;;10.95;4.55;;;;;;;16.24;49.89;100311.81;1770255;81;21176;-77
2022/09/02 01:58:59;;;;;;;13.72;4.70;;;;;;;16.14;50.12;100314.66;1769719;79;21184;-83
2022/09/02 02:02:04;;;;;;;8.23;4.92;;;;;;;16.21;50.05;100311.37;1731870;83;21181;-78
2022/09/02 02:05:12;;;;;;;9.38;4.47;;;;;;;16.25;49.95;100321.78;1730769;83;21232;-78
2022/09/02 02:08:18;;;;;;;11.85;4.72;;;;;;;16.30;49.73;100325.28;1731730;83;21165;-78
2022/09/02 02:11:29;;;;;;;12.65;4.60;;;;;;;16.22;49.93;100324.95;1731747;83;21173;-82
2022/09/02 02:14:38;;;;;;;8.08;4.12;;;;;;;16.20;50.04;100322.11;1731877;83;21236;-83
2022/09/02 02:17:45;;;;;;;10.15;4.55;;;;;;;16.13;50.09;100322.09;1731791;83;21166;-78
2022/09/02 02:20:52;;;;;;;16.35;5.30;;;;;;;16.03;50.33;100330.79;1731928;83;21189;-78
2022/09/02 02:24:02;;;;;;;8.78;4.90;;;;;;;16.03;50.38;100331.32;1731604;83;21272;-82
2022/09/02 02:27:06;;;;;;;14.25;5.17;;;;;;;16.01;50.41;100337.59;1731882;83;21181;-83
2022/09/02 02:30:13;;;;;;;12.55;4.17;;;;;;;16.09;50.32;100336.86;1730869;83;21540;-78
2022/09/02 02:33:20;;;;;;;12.50;4.67;;;;;;;16.11;50.35;100346.30;1731865;83;21782;-82
2022/09/02 02:36:26;;;;;;;14.73;4.45;;;;;;;16.08;50.37;100344.80;1730427;83;21201;-82
2022/09/02 02:39:32;;;;;;;9.53;4.25;;;;;;;16.20;50.16;100355.22;1731278;83;21916;-81
2022/09/02 02:42:38;;;;;;;11.78;4.40;;;;;;;16.10;50.35;100357.02;1731881;83;21193;-83
2022/09/02 02:45:46;;;;;;;8.68;4.72;;;;;;;15.92;50.68;100358.16;1731431;83;21722;-78
2022/09/02 02:48:52;;;;;;;12.05;5.17;;;;;;;15.88;50.79;100363.78;1731723;83;21240;-79
2022/09/02 02:51:58;;;;;;;18.60;5.17;;;;;;;15.92;50.73;100367.28;1731842;83;21158;-83
2022/09/02 02:55:05;;;;;;;11.28;4.25;;;;;;;15.87;50.94;100373.97;1730395;83;21247;-78
2022/09/02 02:58:11;;;;;;;11.50;5.05;;;;;;;15.84;51.09;100375.75;1730424;83;21173;-82
2022/09/02 03:01:18;;;;;;;22.17;4.75;;;;;;;15.88;51.11;100371.52;1747689;81;21172;-78
2022/09/02 03:04:16;;;;;;;12.68;4.60;;;;;;;15.97;50.87;100374.41;1771253;79;21172;-78
2022/09/02 03:07:09;;;;;;;13.05;4.92;;;;;;;15.87;50.92;100376.72;1770369;81;21141;-83
2022/09/02 03:10:17;;;;;;;12.00;4.20;;;;;;;15.77;51.41;100378.51;1770642;79;21195;-79
2022/09/02 03:13:23;;;;;;;12.35;4.85;;;;;;;15.83;51.33;100387.85;1771875;79;21170;-83
2022/09/02 03:16:31;;;;;;;9.63;4.62;;;;;;;15.87;51.30;100391.89;1771118;81;21781;-83
2022/09/02 03:19:37;;;;;;;19.10;4.95;;;;;;;15.85;51.45;100393.98;1771037;79;21602;-78
2022/09/02 03:22:43;;;;;;;12.75;5.08;;;;;;;15.81;51.68;100394.11;1771743;81;21736;-84
2022/09/02 03:25:52;;;;;;;12.07;5.50;;;;;;;15.94;51.44;100395.50;1771784;81;21136;-78
2022/09/02 03:29:01;;;;;;;14.43;5.30;;;;;;;16.08;51.20;100399.98;1770522;79;21144;-83
2022/09/02 03:32:08;;;;;;;14.95;5.62;;;;;;;16.16;51.14;100406.37;1771773;81;21690;-78
2022/09/02 03:35:17;;;;;;;20.68;6.28;;;;;;;16.15;51.12;100409.66;1770662;79;21725;-82
2022/09/02 03:38:24;;;;;;;13.80;5.12;;;;;;;16.08;51.37;100410.17;1771878;79;21624;-78
2022/09/02 03:41:28;;;;;;;12.63;4.70;;;;;;;16.35;50.87;100412.43;1771884;81;21153;-78
2022/09/02 03:44:35;;;;;;;10.82;4.50;;;;;;;16.50;50.40;100414.45;1771394;79;21156;-82
2022/09/02 03:47:44;;;;;;;26.20;4.80;;;;;;;16.59;50.21;100420.61;1770638;81;21175;-82
2022/09/02 03:50:51;;;;;;;13.48;4.55;;;;;;;16.72;50.08;100423.40;1771893;81;21670;-82
2022/09/02 03:53:56;;;;;;;16.10;5.83;;;;;;;16.79;50.06;100427.52;1771688;79;21192;-77
2022/09/02 03:57:01;;;;;;;9.58;4.72;;;;;;;16.85;50.03;100423.92;1771787;81;21192;-80
2022/09/02 04:00:08;;;;;;;12.70;4.30;;;;;;;16.92;49.98;100423.91;1771769;79;21153;-78
2022/09/02 04:03:15;;;;;;;13.38;4.90;;;;;;;16.81;50.46;100428.17;1726796;82;21215;-82
2022/09/02 04:06:22;;;;;;;9.35;4.47;;;;;;;16.92;50.48;100421.14;1719893;83;21710;-82
2022/09/02 04:09:22;;;;;;;18.23;4.75;;;;;;;16.97;50.52;100423.56;1719776;83;21766;-82
2022/09/02 04:12:28;;;;;;;12.70;4.92;;;;;;;17.12;50.53;100431.61;1719973;83;21714;-77
2022/09/02 04:15:35;;;;;;;18.48;3.90;;;;;;;17.51;49.98;100433.95;1719872;83;21581;-78
2022/09/02 04:18:40;;;;;;;13.38;5.03;;;;;;;17.65;49.70;100445.81;1719928;83;21208;-82
2022/09/02 04:21:47;;;;;;;13.10;4.58;;;;;;;17.84;49.42;100443.52;1720052;83;21164;-78
2022/09/02 04:24:53;;;;;;;11.97;4.60;;;;;;;17.94;49.25;100445.27;1719905;83;21208;-78
2022/09/02 04:27:59;;;;;;;10.98;4.60;;;;;;;18.11;48.92;100445.08;1719002;83;21180;-78
2022/09/02 04:31:04;;;;;;;16.02;4.30;;;;;;;18.36;48.50;100441.49;1718941;83;21193;-83
2022/09/02 04:34:09;;;;;;;8.75;4.08;;;;;;;18.45;48.22;100445.69;1719491;83;21236;-82
2022/09/02 04:37:15;;;;;;;10.65;3.87;;;;;;;18.70;47.46;100449.03;1719417;83;21260;-82
2022/09/02 04:40:22;;;;;;;10.68;3.75;;;;;;;18.88;46.85;100453.23;1718737;83;21188;-82
2022/09/02 04:43:27;;;;;;;8.93;3.22;;;;;;;18.92;46.75;100450.33;1719850;83;21184;-77
2022/09/02 04:46:33;;;;;;;9.08;3.60;;;;;;;19.00;46.39;100451.94;1719458;83;21247;-78
2022/09/02 04:49:41;;;;;;;19.10;3.85;;;;;;;19.20;45.97;100458.70;1719169;83;21243;-82
2022/09/02 04:52:48;;;;;;;12.73;3.62;;;;;;;19.32;45.49;100462.39;1719810;83;21195;-79
2022/09/02 04:55:53;;;;;;;13.85;2.87;;;;;;;19.52;45.04;100462.99;1719763;83;21172;-83
2022/09/02 04:59:00;;;;;;;8.20;3.02;;;;;;;19.64;44.72;100458.41;1718458;83;21196;-77
2022/09/02 05:02:19;;;;;;;10.95;2.77;;;;;;;19.63;44.53;100463.66;1719996;83;21216;-83
2022/09/02 05:05:24;;;;;;;8.08;2.55;;;;;;;19.74;44.27;100475.05;1742493;82;21227;-83
2022/09/02 05:08:31;;;;;;;16.17;3.50;;;;;;;19.88;44.08;100476.03;1738992;82;21211;-79
2022/09/02 05:11:39;;;;;;;10.20;2.20;;;;;;;20.05;43.53;100473.48;1706623;83;21164;-79
2022/09/02 05:14:47;;;;;;;5.78;3.00;;;;;;;20.15;43.06;100474.30;1714594;83;21240;-78
2022/09/02 05:17:48;;;;;;;7.50;2.80;;;;;;;20.20;43.00;100481.38;1740623;82;21216;-78
2022/09/02 05:20:55;;;;;;;13.35;3.33;;;;;;;20.30;43.29;100486.36;1736442;82;21221;-78
2022/09/02 05:24:03;;;;;;;8.68;3.10;;;;;;;20.41;42.50;100492.49;1738524;81;21200;-78
2022/09/02 05:27:09;;;;;;;10.32;3.00;;;;;;;20.43;42.36;100485.63;1739802;81;21143;-79
2022/09/02 05:30:16;;;;;;;5.08;3.02;;;;;;;20.51;42.54;100494.73;1728179;81;21239;-84
2022/09/02 05:33:21;;;;;;;5.87;3.00;;;;;;;20.66;42.42;100489.59;1771929;79;21153;-78
2022/09/02 05:36:31;;;;;;;6.92;3.22;;;;;;;20.91;41.78;100496.34;1768868;79;21449;-79
2022/09/02 05:39:37;;;;;;;5.33;3.05;;;;;;;21.16;41.34;100507.23;1774490;80;21219;-85
2022/09/02 05:42:43;;;;;;;3.95;2.33;;;;;;;21.21;41.17;100505.95;1780237;80;21135;-85
2022/09/02 05:45:48;;;;;;;5.20;2.33;;;;;;;21.13;40.64;100514.69;1779751;80;21510;-85
2022/09/02 05:49:07;;;;;;;6.78;2.22;;;;;;;21.19;40.58;100517.88;1774530;80;21151;-85
2022/09/02 05:52:14;;;;;;;3.33;2.05;;;;;;;21.22;40.32;100524.87;1772131;80;21586;-79
2022/09/02 05:55:21;;;;;;;5.42;2.37;;;;;;;21.30;39.42;100531.48;1778699;79;21718;-80
2022/09/02 05:58:28;;;;;;;4.92;2.00;;;;;;;21.40;39.48;100533.14;1765153;79;21133;-85
2022/09/02 06:01:33;;;;;;;11.65;2.00;;;;;;;21.59;39.17;100533.31;1778439;80;21757;-85
2022/09/02 06:04:41;;;;;;;3.90;1.47;;;;;;;21.73;38.65;100537.23;1759527;79;21198;-85
2022/09/02 06:07:47;;;;;;;6.35;2.00;;;;;;;21.79;38.18;100543.23;1722642;82;21162;-80
2022/09/02 06:10:53;;;;;;;6.50;2.37;;;;;;;21.95;37.38;100541.91;1747526;79;21689;-81
2022/09/02 06:14:00;;;;;;;6.03;2.02;;;;;;;21.95;37.61;100540.52;1756924;81;21144;-78
2022/09/02 06:17:08;;;;;;;5.20;1.95;;;;;;;22.14;38.03;100540.38;1758009;80;21211;-79
2022/09/02 06:20:17;;;;;;;3.50;1.72;;;;;;;22.22;36.42;100530.80;1761264;79;21173;-79
2022/09/02 06:23:25;;;;;;;3.00;2.08;;;;;;;22.26;36.90;100536.19;1749296;80;21756;-79
2022/09/02 06:26:31;;;;;;;4.25;1.55;;;;;;;22.37;35.98;100531.09;1750995;81;21188;-80
2022/09/02 06:29:37;;;;;;;5.03;1.70;;;;;;;22.44;36.02;100531.26;1760806;78;21164;-79
2022/09/02 06:32:45;;;;;;;3.60;1.67;;;;;;;22.47;35.52;100537.41;1754061;79;21157;-83
2022/09/02 06:35:52;;;;;;;3.45;1.12;;;;;;;22.37;35.81;100537.52;1755121;79;21163;-77
2022/09/02 06:38:58;;;;;;;9.83;1.90;;;;;;;22.34;35.41;100546.91;1755949;79;21778;-83
2022/09/02 06:42:03;;;;;;;6.00;2.00;;;;;;;22.41;35.83;100540.11;1748177;79;21167;-82
2022/09/02 06:45:09;;;;;;;3.75;1.67;;;;;;;22.50;35.75;100538.32;1756090;79;21485;-84
2022/09/02 06:48:30;;;;;;;7.72;1.90;;;;;;;22.70;35.16;100537.30;1754915;81;21601;-84
2022/09/02 06:51:41;;;;;;;3.08;1.50;;;;;;;22.78;34.53;100538.84;1752895;79;21129;-85
2022/09/02 06:54:50;;;;;;;3.75;1.70;;;;;;;22.94;34.15;100535.24;1755545;79;21392;-85
2022/09/02 06:57:55;;;;;;;2.62;1.60;;;;;;;23.01;33.73;100540.12;1753822;79;21272;-84
2022/09/02 07:01:01;;;;;;;8.90;2.50;;;;;;;22.86;33.68;100549.01;1754249;81;21311;-79
2022/09/02 07:07:34;;;;;;;6.87;2.20;;;;;;;22.89;32.74;100544.92;1756924;81;22022;-80
2022/09/02 07:10:46;;;;;;;3.87;1.80;;;;;;;22.83;32.42;100541.72;1753191;80;21660;-80
2022/09/02 07:13:52;;;;;;;5.72;1.57;;;;;;;22.87;31.43;100540.12;1753517;79;21714;-80
2022/09/02 07:16:59;;;;;;;6.87;1.62;;;;;;;23.00;31.09;100546.77;1759745;81;21774;-81
2022/09/02 07:20:06;;;;;;;4.37;1.60;;;;;;;23.04;30.78;100546.56;1756735;79;21491;-86
2022/09/02 07:23:14;;;;;;;4.08;1.72;;;;;;;23.00;31.36;100553.75;1750342;79;21133;-85
2022/09/02 07:26:22;;;;;;;9.38;2.08;;;;;;;23.12;31.12;100543.37;1758919;79;21132;-81
2022/09/02 07:29:28;;;;;;;6.22;2.77;;;;;;;23.25;30.12;100537.16;1757404;79;21141;-85
2022/09/02 07:32:34;;;;;;;6.85;2.70;;;;;;;23.25;30.97;100555.30;1760749;79;21125;-85
2022/09/02 07:35:41;;;;;;;16.62;3.60;;;;;;;23.36;30.48;100539.00;1759333;79;21738;-85
2022/09/02 07:38:47;;;;;;;7.37;3.30;;;;;;;23.40;28.14;100541.58;1759966;79;22142;-85
2022/09/02 07:41:55;;;;;;;17.75;4.35;;;;;;;23.51;29.13;100548.16;1757209;79;21797;-86
2022/09/02 07:45:01;;;;;;;6.97;2.60;;;;;;;23.64;29.27;100532.48;1753894;79;21189;-80
2022/09/02 07:48:07;;;;;;;7.03;1.87;;;;;;;23.67;29.62;100537.00;1761656;81;21535;-86
2022/09/02 07:51:14;;;;;;;4.55;1.80;;;;;;;23.69;28.52;100547.35;1755923;81;21173;-87
2022/09/02 07:54:19;;;;;;;4.60;1.35;;;;;;;23.61;28.79;100531.00;1754756;79;21791;-85
2022/09/02 07:57:26;;;;;;;2.25;1.12;;;;;;;23.62;28.27;100534.63;1757543;81;21204;-79
2022/09/02 08:00:32;;;;;;;18.65;3.35;;;;;;;23.48;29.09;100541.16;1756712;80;21185;-84
2022/09/02 08:03:38;;;;;;;4.75;1.65;;;;;;;23.44;29.90;100538.02;1756709;80;21236;-83
2022/09/02 08:06:47;;;;;;;4.35;1.10;;;;;;;23.46;29.27;100532.17;1755169;80;21403;-83
2022/09/02 08:09:53;;;;;;;5.03;1.22;;;;;;;23.60;29.15;100540.48;1757226;80;21140;-83
2022/09/02 08:12:59;;;;;;;1.62;1.10;;;;;;;23.72;28.43;100540.42;1762908;81;21169;-79
2022/09/02 08:16:05;;;;;;;4.35;0.90;;;;;;;23.77;28.18;100539.09;1762247;81;21121;-83
2022/09/02 08:19:11;;;;;;;4.87;1.27;;;;;;;23.62;28.60;100553.66;1760472;79;21593;-84
2022/09/02 08:22:18;;;;;;;6.60;1.30;;;;;;;23.70;28.03;100539.26;1716082;82;21184;-79
2022/09/02 08:25:23;;;;;;;5.40;1.12;;;;;;;23.65;27.87;100546.17;1744432;81;21208;-77
2022/09/02 08:28:30;;;;;;;4.97;1.10;;;;;;;23.69;27.12;100548.75;1767462;79;21132;-83
2022/09/02 08:31:36;;;;;;;10.38;1.67;;;;;;;23.68;27.70;100542.88;1762845;81;21482;-78
2022/09/02 08:34:43;;;;;;;10.10;1.42;;;;;;;23.70;28.04;100547.64;1768094;79;21164;-82
2022/09/02 08:37:48;;;;;;;3.08;1.00;;;;;;;23.93;27.44;100541.53;1768138;80;21136;-82
2022/09/02 08:40:55;;;;;;;1.67;0.70;;;;;;;23.99;27.29;100546.07;1758383;81;21152;-79
2022/09/02 08:44:03;;;;;;;8.40;1.10;;;;;;;23.99;27.47;100551.66;1764225;79;21744;-82
2022/09/02 08:47:02;;;;;;;4.75;1.17;;;;;;;24.00;27.41;100544.99;1769683;81;21820;-82
2022/09/02 08:50:01;;;;;;;2.72;0.90;;;;;;;23.95;27.14;100549.12;1764641;80;21181;-78
2022/09/02 08:53:17;;;;;;;5.78;1.02;;;;;;;24.07;26.09;100555.41;1771176;81;21756;-79
2022/09/02 08:56:25;;;;;;;1.35;0.95;;;;;;;24.00;26.37;100544.99;1772470;79;21543;-82
2022/09/02 08:59:32;;;;;;;6.37;1.40;;;;;;;23.95;26.45;100550.52;1762753;79;21718;-82
2022/09/02 09:03:09;;;;;;;7.20;1.30;;;;;;;23.95;26.79;100535.99;1763830;81;21208;-82
2022/09/02 09:06:30;;;;;;;4.72;1.30;;;;;;;24.04;26.94;100551.72;1771157;81;21180;-82
2022/09/02 09:10:09;;;;;;;6.22;1.12;;;;;;;24.10;26.33;100533.09;1739021;81;21201;-78
2022/09/02 09:13:25;;;;;;;5.30;1.05;;;;;;;24.11;26.60;100540.38;1742591;81;21475;-79
2022/09/02 09:16:50;;;;;;;3.35;1.35;;;;;;;24.11;26.12;100546.80;1737914;81;21220;-78
2022/09/02 09:19:59;;;;;;;1.87;0.75;;;;;;;24.04;26.17;100539.15;1738955;81;21833;-83
2022/09/02 09:23:08;;;;;;;5.55;1.17;;;;;;;24.14;26.66;100539.30;1742446;81;21769;-83
2022/09/02 09:26:22;;;;;;;2.00;1.20;;;;;;;24.08;26.74;100532.50;1746308;81;21224;-79
2022/09/02 09:29:27;;;;;;;7.35;1.10;;;;;;;24.06;27.52;100540.31;1736751;81;21177;-82
2022/09/02 09:32:43;;;;;;;3.20;0.98;;;;;;;24.12;27.14;100538.70;1737196;81;21236;-78
2022/09/02 09:36:02;;;;;;;1.70;1.00;;;;;;;24.08;27.13;100531.09;1736001;81;21212;-79
2022/09/02 09:39:26;;;;;;;2.77;1.07;;;;;;;24.12;27.43;100527.52;1740542;81;21208;-78
2022/09/02 09:42:42;;;;;;;5.67;0.85;;;;;;;24.19;26.29;100530.98;1741303;81;21220;-82
2022/09/02 09:45:50;;;;;;;4.05;0.90;;;;;;;24.23;26.75;100534.95;1740326;81;21765;-82
2022/09/02 09:48:58;;;;;;;4.42;1.12;;;;;;;24.35;26.07;100529.20;1691018;84;21902;-78
2022/09/02 09:52:03;;;;;;;3.10;1.20;;;;;;;24.34;25.82;100529.47;1698408;83;21501;-83
2022/09/02 09:55:20;;;;;;;7.05;1.62;;;;;;;24.43;25.77;100535.76;1700246;83;21755;-79
2022/09/02 09:58:26;;;;;;;2.98;1.40;;;;;;;24.51;25.56;100541.41;1706062;83;21168;-83
2022/09/02 10:01:39;;;;;;;5.30;1.20;;;;;;;24.52;24.93;100536.14;1695454;83;21716;-83
2022/09/02 10:04:44;;;;;;;5.65;1.30;;;;;;;24.56;24.88;100539.23;1699386;83;21186;-80
2022/09/02 10:07:50;;;;;;;3.20;1.27;;;;;;;24.66;24.01;100537.96;1692739;83;21767;-79
2022/09/02 10:11:10;;;;;;;7.58;1.30;;;;;;;24.62;24.85;100532.05;1670647;84;21138;-83
2022/09/02 10:14:17;;;;;;;2.02;1.02;;;;;;;24.67;24.99;100546.08;1690580;83;21245;-77
2022/09/02 10:17:50;;;;;;;2.12;1.02;;;;;;;24.73;24.96;100546.97;1688783;83;21192;-78
2022/09/02 10:21:15;;;;;;;2.77;1.40;;;;;;;24.84;25.23;100537.59;1689422;84;21216;-78
2022/09/02 10:24:50;;;;;;;4.67;1.50;;;;;;;24.88;25.14;100538.72;1691392;84;21225;-81
2022/09/02 10:28:19;;;;;;;9.78;1.50;;;;;;;24.84;25.01;100547.91;1690574;84;21222;-78
2022/09/02 10:31:51;;;;;;;6.47;1.15;;;;;;;24.77;24.69;100534.70;1660895;84;21791;-82
2022/09/02 10:35:25;;;;;;;5.08;1.30;;;;;;;24.71;24.81;100548.64;1689755;83;21185;-82
2022/09/02 10:38:41;;;;;;;3.25;0.98;;;;;;;24.83;24.28;100546.22;1692905;83;21146;-77
2022/09/02 10:41:49;;;;;;;6.28;1.47;;;;;;;24.77;24.74;100540.30;1692653;84;21241;-82
2022/09/02 10:45:00;;;;;;;3.87;1.40;;;;;;;24.87;24.65;100533.40;1690621;84;21182;-78
2022/09/02 10:48:21;;;;;;;4.45;1.22;;;;;;;24.88;24.34;100531.72;1690694;84;21547;-82
2022/09/02 10:51:49;;;;;;;3.70;1.77;;;;;;;25.01;24.59;100537.44;1690983;84;21208;-78
2022/09/02 10:55:00;;;;;;;5.45;1.00;;;;;;;24.89;24.19;100536.76;1683655;83;21210;-83
2022/09/02 10:58:21;;;;;;;5.62;1.12;;;;;;;24.91;23.99;100531.20;1691402;84;21462;-78
2022/09/02 11:01:32;;;;;;;1.75;0.88;;;;;;;24.96;24.21;100540.20;1692364;84;21130;-79
2022/09/02 11:05:05;;;;;;;4.05;1.30;;;;;;;24.92;23.10;100536.23;1690647;84;21944;-83
2022/09/02 11:08:19;;;;;;;3.45;1.40;;;;;;;24.93;23.43;100536.52;1690846;84;21169;-78
2022/09/02 11:11:37;;;;;;;9.03;1.20;;;;;;;24.88;23.69;100523.33;1710161;83;21734;-79
2022/09/02 11:15:20;;;;;;;1.85;1.30;;;;;;;25.00;24.15;100531.56;1708917;82;21778;-78
2022/09/02 11:18:33;;;;;;;3.47;1.07;;;;;;;25.08;23.58;100531.11;1759222;80;21488;-78
2022/09/02 11:22:09;;;;;;;3.60;1.35;;;;;;;25.22;23.49;100525.35;1750039;81;21562;-83
2022/09/02 11:25:46;;;;;;;3.10;1.50;;;;;;;25.16;24.23;100519.96;1754668;80;21241;-78
2022/09/02 11:29:14;;;;;;;4.00;0.88;;;;;;;25.14;24.43;100518.84;1704014;80;21221;-85
2022/09/02 11:32:33;;;;;;;2.58;1.05;;;;;;;25.20;23.76;100519.16;1721202;82;21179;-86
2022/09/02 11:35:45;;;;;;;2.60;1.00;;;;;;;25.32;23.86;100532.98;1742876;79;21216;-84
2022/09/02 11:39:04;;;;;;;4.65;1.25;;;;;;;25.36;23.47;100522.06;1758291;79;21787;-86
2022/09/02 11:42:31;;;;;;;6.05;1.20;;;;;;;25.30;23.12;100517.55;1720378;80;21747;-85
2022/09/02 11:45:48;;;;;;;2.75;1.22;;;;;;;25.18;23.37;100515.80;1697499;83;21210;-85
2022/09/02 11:49:06;;;;;;;7.20;1.30;;;;;;;25.07;23.79;100514.01;1750194;79;21209;-84
2022/09/02 11:52:34;;;;;;;3.08;1.40;;;;;;;25.02;23.98;100513.09;1756051;79;21161;-84
2022/09/02 11:55:56;;;;;;;9.55;1.62;;;;;;;24.99;23.67;100512.53;1755806;79;21541;-85
2022/09/02 11:59:03;;;;;;;5.22;1.07;;;;;;;25.04;23.69;100497.74;1751251;79;22138;-86
2022/09/02 12:02:09;;;;;;;3.58;1.40;;;;;;;25.15;23.82;100502.33;1748657;79;21583;-84
2022/09/02 12:05:38;;;;;;;2.22;1.35;;;;;;;25.11;23.48;100489.14;1754003;81;21204;-86
2022/09/02 12:08:52;;;;;;;4.30;1.40;;;;;;;25.20;23.21;100493.97;1756453;79;21259;-85
2022/09/02 12:11:58;;;;;;;4.78;1.40;;;;;;;25.40;22.85;100492.42;1752928;79;21209;-86
2022/09/02 12:15:08;;;;;;;4.03;1.07;;;;;;;25.42;22.59;100486.01;1753388;79;21227;-85
2022/09/02 12:18:35;;;;;;;3.90;1.40;;;;;;;25.35;22.88;100486.79;1733386;81;21236;-86
2022/09/02 12:21:41;;;;;;;4.00;1.27;;;;;;;25.43;22.99;100487.13;1703851;82;21277;-85
2022/09/02 12:25:04;;;;;;;30.02;2.33;;;;;;;25.63;22.51;100496.76;1700422;82;21178;-83
2022/09/02 12:28:30;;;;;;;4.65;1.52;;;;;;;25.67;22.21;100479.70;1726954;81;21169;-84
2022/09/02 12:31:53;;;;;;;4.28;1.67;;;;;;;25.55;22.03;100484.13;1731229;81;21183;-85
2022/09/02 12:35:00;;;;;;;3.08;1.25;;;;;;;25.56;22.13;100476.02;1711708;82;21424;-83
2022/09/02 12:38:22;;;;;;;6.92;1.05;;;;;;;25.53;22.11;100468.14;1732405;81;21145;-84
2022/09/02 12:41:31;;;;;;;4.90;1.20;;;;;;;25.63;22.49;100478.55;1734877;81;22107;-84
2022/09/02 12:45:20;;;;;;;2.83;1.30;;;;;;;25.63;22.11;100480.80;1731267;81;21173;-85
2022/09/02 12:48:27;;;;;;;2.47;1.17;;;;;;;25.60;22.14;100482.76;1708227;82;21197;-87
2022/09/02 12:52:01;;;;;;;3.75;1.57;;;;;;;25.55;22.59;100478.53;1732534;81;21153;-86
2022/09/02 12:55:09;;;;;;;3.83;1.20;;;;;;;25.55;22.29;100481.33;1731409;81;21169;-87
2022/09/02 12:58:16;;;;;;;5.90;1.10;;;;;;;25.55;22.00;100486.06;1710013;81;21618;-85
2022/09/02 13:02:01;;;;;;;7.67;1.15;;;;;;;25.52;21.91;100478.23;1710265;82;21214;-85
2022/09/02 13:05:45;;;;;;;2.77;0.93;;;;;;;25.42;21.39;100474.81;1729669;81;21161;-86
2022/09/02 13:08:55;;;;;;;5.67;0.90;;;;;;;25.37;21.61;100471.98;1727221;81;21798;-87
2022/09/02 13:12:26;;;;;;;6.17;1.02;;;;;;;25.32;21.70;100469.98;1723741;81;21216;-87
2022/09/02 13:16:17;;;;;;;4.97;1.20;;;;;;;25.33;21.65;100470.83;1737748;81;22254;-85
2022/09/02 13:19:51;;;;;;;4.25;1.32;;;;;;;25.26;22.18;100470.20;1714416;82;21234;-87
2022/09/02 13:23:31;;;;;;;2.90;0.95;;;;;;;25.12;22.76;100467.87;1688389;85;21589;-86
2022/09/02 13:26:49;;;;;;;2.87;1.52;;;;;;;25.10;23.19;100470.11;1689362;85;21165;-86
2022/09/02 13:30:21;;;;;;;6.30;1.70;;;;;;;25.20;23.93;100469.34;1663123;85;21232;-86
2022/09/02 13:33:26;;;;;;;7.80;1.72;;;;;;;25.21;23.18;100463.45;1675066;85;21214;-86
2022/09/02 13:36:38;;;;;;;2.72;1.40;;;;;;;25.20;23.36;100465.98;1674341;85;21198;-86
2022/09/02 13:39:45;;;;;;;1.98;1.10;;;;;;;25.19;22.97;100464.30;1656685;86;21243;-87
2022/09/02 13:42:55;;;;;;;2.27;1.15;;;;;;;25.17;23.02;100462.86;1705283;84;21220;-87
2022/09/02 13:46:07;;;;;;;2.80;1.32;;;;;;;25.26;22.87;100461.81;1705304;84;21178;-85
2022/09/02 13:49:12;;;;;;;2.90;1.25;;;;;;;25.22;22.67;100467.13;1705783;84;21184;-86
2022/09/02 13:52:26;;;;;;;3.95;1.32;;;;;;;25.19;22.72;100472.70;1707668;84;21171;-85
2022/09/02 13:55:33;;;;;;;2.27;1.12;;;;;;;25.10;22.76;100465.07;1707900;84;21228;-85
2022/09/02 13:58:55;;;;;;;11.20;1.20;;;;;;;25.08;22.98;100464.48;1709197;84;21196;-86
2022/09/02 14:02:00;;;;;;;3.02;1.20;;;;;;;25.11;23.10;100470.95;1709546;84;21720;-86
2022/09/02 14:05:22;;;;;;;7.37;1.50;;;;;;;25.07;23.32;100467.84;1709196;84;21248;-85
2022/09/02 14:08:30;;;;;;;5.47;1.37;;;;;;;25.10;23.05;100472.91;1708072;83;21169;-85
2022/09/02 14:11:35;;;;;;;7.75;1.75;;;;;;;25.09;22.83;100465.62;1709554;84;21177;-85
2022/09/02 14:14:42;;;;;;;7.20;1.30;;;;;;;25.02;23.15;100471.97;1709520;84;21189;-85
2022/09/02 14:17:48;;;;;;;4.10;0.98;;;;;;;24.97;23.15;100467.73;1709523;84;21808;-85
2022/09/02 14:21:25;;;;;;;10.70;0.98;;;;;;;24.88;23.42;100467.37;1709538;84;21165;-85
2022/09/02 14:24:36;;;;;;;5.95;1.10;;;;;;;24.99;23.35;100483.72;1726360;82;21185;-85
2022/09/02 14:27:35;;;;;;;9.75;1.35;;;;;;;25.01;23.14;100467.48;1739004;82;21141;-86
2022/09/02 14:30:45;;;;;;;5.53;1.15;;;;;;;25.09;23.21;100462.83;1724237;81;21240;-86
2022/09/02 14:33:52;;;;;;;4.03;0.80;;;;;;;25.09;23.14;100464.23;1721819;83;21722;-85
2022/09/02 14:36:57;;;;;;;1.77;0.90;;;;;;;25.13;23.06;100470.98;1721766;83;21199;-86
2022/09/02 14:40:18;;;;;;;9.88;0.88;;;;;;;25.15;23.09;100475.74;1721810;83;21192;-85
2022/09/02 14:43:24;;;;;;;8.63;1.55;;;;;;;25.04;23.32;100475.36;1721789;83;21145;-85
2022/09/02 14:46:34;;;;;;;7.75;0.80;;;;;;;24.92;23.06;100473.29;1721898;83;21719;-84
2022/09/02 14:49:45;;;;;;;1.93;0.70;;;;;;;24.83;23.10;100474.33;1721350;83;21823;-86